Main page
METAR-TAF:

METAR-TAF

Airports :

Addison Airport

Dallas / Addison, Texas, United States

latitude: 32-58N, longitude: 096-50W, elevation: 643 ft

Current weather observation

The report was made 1 hour and 13 minutes ago, at 19:47 UTC
Wind 9 mph from the East
Temperature 91°F
Humidity 41%
Pressure 29.90 in. Hg
Visibility: 10 miles
Broken clouds at a height of 5500 ft

METAR: KADS 151947Z 10008KT 10SM BKN055 33/18 A2990

Time: 16:00 (21:00 UTC)


TAF: missing

Weather observations and forecasts of more than 4000 airports (METAR and TAF reports).

The available stations are represented by yellow and red dots on the map.

Hover mouse over dot to see the name of the station.

Then click to see weather observations and forecasts.

To change the map : click on the green buttons with a black cross to zoom in, on the green button with a dash to zoom out, or on the green arrows for adjacent maps.


METAR-TAF: